Time;durP1;ratioP1;P1;durP2;ratioP2;P2;SDS_P1;SDS_P2;PMS_P1;PMS_P2;Temp;Humidity;BMP_temperature;BMP_pressure;BME280_temperature;BME280_humidity;BME280_pressure;Samples;Min_cycle;Max_cycle;Signal;HPM_P1;HPM_P2
2022/10/30 00:01:12;;;;;;;4.70;3.03;;;13.80;96.30;;;;;;4784673;29;20235;-84
2022/10/30 00:03:40;;;;;;;8.18;3.25;;;13.80;96.30;;;;;;4802892;29;20081;-84
2022/10/30 00:06:07;;;;;;;7.22;3.33;;;13.80;96.40;;;;;;4805523;29;20418;-84
2022/10/30 00:08:34;;;;;;;5.05;3.17;;;13.80;96.40;;;;;;4789832;29;20055;-85
2022/10/30 00:11:09;;;;;;;7.70;3.92;;;13.70;96.40;;;;;;4789318;29;20051;-84
2022/10/30 00:13:38;;;;;;;7.25;2.97;;;13.80;96.40;;;;;;4787134;29;20071;-84
2022/10/30 00:16:06;;;;;;;4.93;3.15;;;13.70;96.40;;;;;;4791351;29;20055;-84
2022/10/30 00:18:38;;;;;;;5.22;2.80;;;13.70;96.40;;;;;;4808275;29;20054;-85
2022/10/30 00:21:07;;;;;;;5.40;3.08;;;13.70;96.40;;;;;;4792028;29;20055;-84
2022/10/30 00:23:35;;;;;;;5.72;3.28;;;13.70;96.40;;;;;;4811645;29;20053;-85
2022/10/30 00:26:04;;;;;;;5.25;2.70;;;13.60;96.40;;;;;;4806684;29;20520;-85
2022/10/30 00:28:31;;;;;;;5.68;3.00;;;13.60;96.70;;;;;;4789812;29;20149;-84
2022/10/30 00:31:04;;;;;;;7.07;3.08;;;13.60;96.40;;;;;;4773529;29;20142;-85
2022/10/30 00:33:32;;;;;;;7.25;2.75;;;13.60;96.30;;;;;;4792097;29;20524;-84
2022/10/30 00:35:59;;;;;;;8.40;3.53;;;13.60;96.40;;;;;;4809716;29;20184;-84
2022/10/30 00:38:26;;;;;;;7.10;3.35;;;13.60;96.40;;;;;;4804299;29;20074;-84
2022/10/30 00:40:53;;;;;;;9.23;3.10;;;13.50;96.40;;;;;;4774481;29;20051;-85
2022/10/30 00:43:31;;;;;;;5.97;3.10;;;13.50;96.30;;;;;;4789620;29;20058;-84
2022/10/30 00:46:27;;;;;;;6.30;3.58;;;13.50;96.40;;;;;;4789681;29;20047;-84
2022/10/30 00:49:14;;;;;;;5.60;3.25;;;13.50;96.30;;;;;;4774037;29;20523;-84
2022/10/30 00:51:47;;;;;;;4.95;2.92;;;13.50;96.40;;;;;;4789391;29;20161;-84
2022/10/30 00:54:16;;;;;;;8.18;3.17;;;13.50;96.40;;;;;;4822704;29;20050;-84
2022/10/30 00:56:45;;;;;;;7.95;3.00;;;13.40;96.40;;;;;;4807148;29;20493;-84
2022/10/30 00:59:16;;;;;;;4.78;2.90;;;13.40;96.40;;;;;;4789654;29;20504;-84
2022/10/30 01:01:45;;;;;;;9.00;3.40;;;13.40;96.40;;;;;;4789364;29;20051;-84
2022/10/30 01:04:15;;;;;;;6.72;3.25;;;13.40;96.40;;;;;;4803589;29;20138;-84
2022/10/30 01:06:47;;;;;;;6.43;2.50;;;13.40;96.40;;;;;;4804149;29;20053;-84
2022/10/30 01:09:14;;;;;;;10.02;3.50;;;13.40;96.40;;;;;;4803944;29;20055;-84
2022/10/30 01:11:42;;;;;;;6.63;2.55;;;13.40;96.40;;;;;;4804239;29;20053;-84
2022/10/30 01:14:14;;;;;;;6.88;2.85;;;13.30;96.40;;;;;;4804432;29;20050;-84
2022/10/30 01:16:57;;;;;;;6.68;2.80;;;13.30;96.70;;;;;;4804609;29;20054;-84
2022/10/30 01:19:33;;;;;;;4.05;2.53;;;13.30;96.40;;;;;;4803608;29;20054;-84
2022/10/30 01:22:35;;;;;;;6.53;3.38;;;13.30;96.40;;;;;;4786381;30;20058;-84
2022/10/30 01:25:38;;;;;;;7.28;2.72;;;13.30;96.40;;;;;;4788805;29;20050;-84
2022/10/30 01:28:34;;;;;;;5.55;2.55;;;13.20;96.40;;;;;;4803922;29;20396;-84
2022/10/30 01:31:19;;;;;;;6.78;2.90;;;13.20;96.50;;;;;;4813092;29;20396;-84
2022/10/30 01:34:13;;;;;;;5.32;2.53;;;13.20;96.40;;;;;;4797067;29;20043;-84
2022/10/30 01:36:58;;;;;;;6.50;2.58;;;13.10;96.40;;;;;;4802134;29;20047;-84
2022/10/30 01:39:34;;;;;;;5.43;2.70;;;13.10;96.50;;;;;;4803694;29;20058;-84
2022/10/30 01:42:39;;;;;;;4.25;2.53;;;13.10;96.50;;;;;;4819287;29;20047;-84
2022/10/30 01:45:07;;;;;;;4.68;2.25;;;13.00;96.40;;;;;;4803614;29;20075;-84
2022/10/30 01:48:09;;;;;;;6.30;2.63;;;13.00;96.50;;;;;;4788613;29;20569;-84
2022/10/30 01:51:11;;;;;;;10.98;3.05;;;13.00;96.40;;;;;;4809881;29;20059;-84
2022/10/30 01:53:50;;;;;;;5.95;2.65;;;13.00;96.40;;;;;;4777731;29;20062;-84
2022/10/30 01:56:43;;;;;;;5.82;2.97;;;13.00;96.50;;;;;;4811524;29;20504;-84
2022/10/30 01:59:33;;;;;;;5.00;2.92;;;13.00;96.40;;;;;;4760701;29;20050;-84
2022/10/30 02:02:01;;;;;;;5.60;2.42;;;13.00;96.50;;;;;;4803399;29;20055;-85
2022/10/30 02:04:30;;;;;;;4.32;2.20;;;13.00;96.50;;;;;;4774055;29;20059;-84
2022/10/30 02:06:57;;;;;;;5.55;2.65;;;13.00;96.50;;;;;;4787668;29;20079;-84
2022/10/30 02:09:25;;;;;;;5.25;2.55;;;13.00;96.50;;;;;;4789510;29;20043;-84
2022/10/30 02:11:53;;;;;;;6.40;2.90;;;13.00;96.40;;;;;;4800870;29;20069;-84
2022/10/30 02:14:34;;;;;;;6.13;2.90;;;13.00;96.40;;;;;;4799843;29;20421;-84
2022/10/30 02:17:05;;;;;;;5.05;2.22;;;13.00;96.40;;;;;;4789541;29;20119;-84
2022/10/30 02:19:34;;;;;;;6.85;2.80;;;12.90;96.40;;;;;;4792880;29;20399;-84
2022/10/30 02:22:02;;;;;;;5.25;2.47;;;12.90;96.40;;;;;;4762423;29;20051;-84
2022/10/30 02:24:32;;;;;;;6.88;2.65;;;12.90;96.70;;;;;;4806350;29;20052;-84
2022/10/30 02:26:59;;;;;;;5.60;2.85;;;12.90;96.40;;;;;;4806482;29;20134;-84
2022/10/30 02:29:26;;;;;;;7.07;2.60;;;12.90;96.50;;;;;;4796828;29;20051;-84
2022/10/30 02:31:53;;;;;;;5.28;2.72;;;12.80;96.40;;;;;;4806797;29;20504;-84
2022/10/30 02:34:20;;;;;;;6.28;2.83;;;12.80;96.40;;;;;;4776789;29;20134;-84
2022/10/30 02:36:48;;;;;;;5.15;2.35;;;12.80;96.40;;;;;;4791575;29;20102;-84
2022/10/30 02:39:15;;;;;;;6.93;2.47;;;12.80;96.40;;;;;;4776980;29;20564;-84
2022/10/30 02:41:42;;;;;;;6.72;2.30;;;12.80;96.40;;;;;;4791448;29;20100;-84
2022/10/30 02:44:11;;;;;;;6.13;2.75;;;12.80;96.40;;;;;;4789038;30;20143;-87
2022/10/30 02:46:38;;;;;;;5.47;2.30;;;12.80;96.40;;;;;;4771725;29;20051;-88
2022/10/30 02:49:05;;;;;;;4.93;2.67;;;12.80;96.40;;;;;;4792601;29;20051;-88
2022/10/30 02:51:32;;;;;;;6.30;2.45;;;12.80;96.40;;;;;;4792313;29;20059;-87
2022/10/30 02:54:00;;;;;;;5.00;2.97;;;12.70;96.40;;;;;;4807332;29;20223;-88
2022/10/30 02:56:28;;;;;;;6.03;2.67;;;12.70;96.40;;;;;;4776041;29;20051;-88
2022/10/30 02:58:55;;;;;;;6.90;2.63;;;12.70;96.40;;;;;;4779081;29;20057;-88
2022/10/30 03:01:22;;;;;;;4.68;2.25;;;12.70;96.40;;;;;;4777208;29;20055;-87
2022/10/30 03:03:53;;;;;;;4.43;2.20;;;12.70;96.70;;;;;;4782781;29;20055;-88
2022/10/30 03:06:22;;;;;;;5.45;2.50;;;12.70;96.40;;;;;;4805475;29;20058;-87
2022/10/30 03:08:49;;;;;;;5.63;2.50;;;12.60;96.40;;;;;;4806801;29;20100;-88
2022/10/30 03:11:18;;;;;;;6.10;2.42;;;12.60;96.40;;;;;;4776944;29;20050;-85
2022/10/30 03:13:47;;;;;;;4.20;2.00;;;12.60;96.40;;;;;;4809942;29;20119;-84
2022/10/30 03:16:20;;;;;;;3.80;2.60;;;12.60;96.40;;;;;;4809887;29;20133;-84
2022/10/30 03:18:49;;;;;;;5.22;2.38;;;12.60;96.40;;;;;;4803518;29;20576;-84
2022/10/30 03:21:19;;;;;;;4.22;2.22;;;12.60;96.40;;;;;;4792964;29;20051;-84
2022/10/30 03:23:45;;;;;;;5.13;2.45;;;12.60;96.40;;;;;;4805971;29;20185;-84
2022/10/30 03:26:12;;;;;;;4.57;2.33;;;12.60;96.40;;;;;;4762085;29;20050;-84
2022/10/30 03:28:48;;;;;;;3.85;2.20;;;12.50;96.40;;;;;;4784385;29;20078;-84
2022/10/30 03:31:17;;;;;;;3.97;2.25;;;12.50;96.40;;;;;;4791038;29;20055;-84
2022/10/30 03:33:47;;;;;;;5.03;2.30;;;12.50;96.40;;;;;;4806254;29;20107;-84
2022/10/30 03:36:14;;;;;;;4.40;2.30;;;12.50;96.40;;;;;;4789071;29;20057;-84
2022/10/30 03:38:42;;;;;;;4.30;1.98;;;12.50;96.40;;;;;;4793663;29;20043;-83
2022/10/30 03:41:12;;;;;;;4.97;1.90;;;12.50;96.40;;;;;;4819762;29;20073;-84
2022/10/30 03:43:39;;;;;;;6.65;2.75;;;12.40;96.40;;;;;;4795997;29;20512;-84
2022/10/30 03:46:09;;;;;;;5.68;2.70;;;12.40;96.40;;;;;;4809152;29;20125;-84
2022/10/30 03:48:37;;;;;;;4.25;2.20;;;12.40;96.40;;;;;;4807521;29;20111;-84
2022/10/30 03:51:04;;;;;;;4.95;2.10;;;12.40;96.40;;;;;;4820123;29;20047;-84
2022/10/30 03:53:31;;;;;;;5.55;2.58;;;12.40;96.40;;;;;;4787360;29;20055;-84
2022/10/30 03:56:03;;;;;;;5.63;2.30;;;12.40;96.40;;;;;;4766178;29;20119;-84
2022/10/30 03:58:41;;;;;;;4.90;1.70;;;12.40;96.40;;;;;;4817930;29;20109;-84
2022/10/30 04:01:11;;;;;;;4.28;2.53;;;12.40;96.40;;;;;;4775743;29;20107;-84
2022/10/30 04:03:41;;;;;;;5.63;2.65;;;12.40;96.40;;;;;;4819306;29;20047;-84
2022/10/30 04:06:10;;;;;;;3.35;2.10;;;12.40;96.40;;;;;;4775456;29;20054;-84
2022/10/30 04:08:37;;;;;;;3.58;1.83;;;12.40;96.40;;;;;;4772470;29;20062;-84
2022/10/30 04:11:04;;;;;;;4.50;2.15;;;12.40;96.40;;;;;;4804286;29;20096;-84
2022/10/30 04:13:32;;;;;;;4.95;2.10;;;12.40;96.40;;;;;;4790068;29;20090;-83
2022/10/30 04:15:59;;;;;;;5.53;2.10;;;12.40;96.40;;;;;;4804405;29;20081;-83
2022/10/30 04:18:26;;;;;;;5.32;2.15;;;12.40;96.40;;;;;;4805673;29;20039;-83
2022/10/30 04:20:54;;;;;;;4.72;2.05;;;12.40;96.30;;;;;;4789991;29;20604;-83
2022/10/30 04:23:24;;;;;;;4.75;2.10;;;12.40;96.30;;;;;;4803031;29;20070;-83
2022/10/30 04:25:52;;;;;;;5.10;2.35;;;12.40;96.30;;;;;;4800177;29;20078;-83
2022/10/30 04:28:20;;;;;;;5.50;1.88;;;12.30;96.30;;;;;;4784621;30;20139;-87
2022/10/30 04:30:47;;;;;;;4.88;2.55;;;12.30;96.30;;;;;;4787413;29;20496;-87
2022/10/30 04:33:16;;;;;;;5.80;1.95;;;12.30;96.30;;;;;;4803794;29;20050;-87
2022/10/30 04:35:43;;;;;;;3.90;1.92;;;12.30;96.30;;;;;;4798609;29;20059;-87
2022/10/30 04:38:19;;;;;;;3.53;1.65;;;12.30;96.30;;;;;;4818970;29;21731;-87
2022/10/30 04:40:48;;;;;;;4.25;2.17;;;12.20;96.40;;;;;;4806405;29;20050;-87
2022/10/30 04:43:15;;;;;;;5.20;1.90;;;12.20;96.30;;;;;;4792222;29;20047;-87
2022/10/30 04:45:47;;;;;;;4.80;1.90;;;12.20;96.40;;;;;;4808612;29;20050;-86
2022/10/30 04:48:17;;;;;;;5.10;1.67;;;12.20;96.40;;;;;;4790175;29;20111;-86
2022/10/30 04:50:46;;;;;;;3.72;2.25;;;12.20;96.40;;;;;;4795823;29;20144;-87
2022/10/30 04:53:24;;;;;;;5.60;2.10;;;12.10;96.40;;;;;;4790048;29;20055;-87
2022/10/30 04:55:57;;;;;;;4.75;2.47;;;12.10;96.40;;;;;;4790635;29;20053;-87
2022/10/30 04:58:26;;;;;;;3.58;1.83;;;12.10;96.50;;;;;;4761543;29;20115;-87
2022/10/30 05:01:03;;;;;;;6.07;2.30;;;12.10;96.50;;;;;;4811373;29;20047;-86
2022/10/30 05:03:32;;;;;;;5.60;2.53;;;12.00;96.40;;;;;;4820250;29;20046;-87
2022/10/30 05:06:06;;;;;;;5.80;2.38;;;12.00;96.40;;;;;;4793854;29;20057;-87
2022/10/30 05:08:33;;;;;;;5.78;2.35;;;12.00;96.40;;;;;;4791411;29;20066;-87
2022/10/30 05:11:09;;;;;;;5.53;2.55;;;12.00;96.40;;;;;;4790513;29;20074;-86
2022/10/30 05:13:36;;;;;;;4.72;2.25;;;12.00;96.50;;;;;;4789975;29;20055;-87
2022/10/30 05:16:04;;;;;;;4.97;2.38;;;12.00;96.40;;;;;;4790590;29;20131;-86
2022/10/30 05:18:31;;;;;;;4.25;2.20;;;12.00;96.40;;;;;;4797959;29;20050;-87
2022/10/30 05:20:58;;;;;;;5.57;1.92;;;12.00;96.40;;;;;;4795222;29;20051;-86
2022/10/30 05:23:25;;;;;;;5.93;2.35;;;12.00;96.40;;;;;;4796432;29;20062;-87
2022/10/30 05:25:52;;;;;;;7.28;2.40;;;12.00;96.40;;;;;;4781703;29;20046;-87
2022/10/30 05:28:19;;;;;;;5.65;1.88;;;11.90;96.40;;;;;;4775923;29;20051;-87
2022/10/30 05:30:53;;;;;;;4.90;2.30;;;11.90;96.40;;;;;;4776054;29;20051;-87
2022/10/30 05:33:55;;;;;;;4.88;2.25;;;11.90;96.40;;;;;;4811059;29;20108;-86
2022/10/30 05:36:24;;;;;;;3.50;2.08;;;11.90;96.50;;;;;;4817101;29;20137;-87
2022/10/30 05:38:52;;;;;;;4.22;1.95;;;11.80;96.40;;;;;;4811670;29;20039;-87
2022/10/30 05:41:45;;;;;;;3.72;2.08;;;11.80;96.40;;;;;;4794746;29;20067;-87
2022/10/30 05:44:12;;;;;;;6.90;2.03;;;11.80;96.40;;;;;;4745735;29;20057;-87
2022/10/30 05:46:41;;;;;;;4.97;2.40;;;11.80;96.40;;;;;;4790341;29;20131;-87
2022/10/30 05:49:22;;;;;;;6.30;1.83;;;11.80;96.40;;;;;;4776830;29;20055;-86
2022/10/30 05:51:49;;;;;;;5.13;2.35;;;11.80;96.40;;;;;;4805357;29;20054;-84
2022/10/30 05:54:16;;;;;;;3.95;2.13;;;11.80;96.40;;;;;;4777749;29;20496;-89
2022/10/30 05:56:57;;;;;;;3.88;1.80;;;11.70;96.40;;;;;;4807487;29;20496;-92
2022/10/30 05:59:24;;;;;;;3.30;1.70;;;11.70;96.50;;;;;;4814537;29;20051;-91
2022/10/30 06:01:51;;;;;;;4.65;1.88;;;11.70;96.50;;;;;;4808913;29;20547;-90
2022/10/30 06:04:18;;;;;;;4.75;2.35;;;11.70;96.50;;;;;;4777569;29;20472;-84
2022/10/30 06:06:46;;;;;;;4.60;2.03;;;11.70;96.50;;;;;;4806835;29;20058;-83
2022/10/30 06:09:13;;;;;;;5.13;2.42;;;11.70;96.50;;;;;;4791931;29;20059;-84
2022/10/30 06:12:02;;;;;;;5.10;2.25;;;11.60;96.50;;;;;;4796478;29;20067;-85
2022/10/30 06:14:48;;;;;;;3.85;1.65;;;11.60;96.50;;;;;;4790261;29;20514;-85
2022/10/30 06:17:15;;;;;;;4.93;2.03;;;11.60;96.50;;;;;;4765013;29;20055;-92
2022/10/30 06:19:53;;;;;;;4.20;2.10;;;11.60;96.50;;;;;;4811267;29;20050;-91
2022/10/30 06:23:13;;;;;;;4.30;2.00;;;11.60;96.50;;;;;;4810759;29;20059;-90
2022/10/30 06:25:51;;;;;;;3.97;1.92;;;11.60;96.50;;;;;;4786783;29;20424;-90
2022/10/30 06:28:34;;;;;;;3.90;2.40;;;11.50;96.50;;;;;;4777396;29;20424;-91
2022/10/30 06:31:01;;;;;;;5.43;2.42;;;11.50;96.50;;;;;;4803179;29;20043;-90
2022/10/30 06:33:30;;;;;;;3.80;1.88;;;11.50;96.50;;;;;;4795992;29;20062;-90
2022/10/30 06:35:58;;;;;;;5.28;1.98;;;11.50;96.50;;;;;;4800225;29;20062;-84
2022/10/30 06:38:28;;;;;;;3.90;1.73;;;11.50;96.50;;;;;;4777241;29;20108;-86
2022/10/30 06:40:56;;;;;;;5.00;1.85;;;11.50;96.50;;;;;;4793402;29;20484;-86
2022/10/30 06:43:41;;;;;;;3.83;1.88;;;11.50;96.50;;;;;;4801021;29;20054;-86
2022/10/30 06:46:15;;;;;;;3.88;1.98;;;11.50;96.50;;;;;;4790039;29;20138;-91
2022/10/30 06:48:49;;;;;;;5.20;1.73;;;11.50;96.80;;;;;;4798442;29;20127;-96
2022/10/30 06:51:17;;;;;;;3.97;2.47;;;11.50;96.50;;;;;;4795429;29;20397;-90
2022/10/30 06:53:45;;;;;;;5.95;2.13;;;11.50;96.50;;;;;;4806355;29;20050;-91
2022/10/30 06:56:50;;;;;;;4.38;2.10;;;11.50;96.50;;;;;;4789437;29;20126;-83
2022/10/30 06:59:29;;;;;;;4.40;2.03;;;11.50;96.50;;;;;;4797562;29;20401;-83
2022/10/30 07:02:32;;;;;;;3.92;1.98;;;11.50;96.50;;;;;;4796700;29;20051;-89
2022/10/30 07:05:04;;;;;;;3.78;1.92;;;11.50;96.50;;;;;;4796301;29;20071;-89
2022/10/30 07:07:34;;;;;;;4.72;2.08;;;11.50;96.50;;;;;;4797218;29;20577;-89
2022/10/30 07:10:01;;;;;;;3.20;1.60;;;11.50;96.40;;;;;;4776665;29;20054;-84
2022/10/30 07:12:55;;;;;;;4.82;2.00;;;11.60;96.70;;;;;;4794731;29;20133;-84
2022/10/30 07:15:59;;;;;;;3.95;1.73;;;11.60;96.40;;;;;;4798842;29;20133;-84
2022/10/30 07:18:33;;;;;;;4.68;1.95;;;11.60;96.40;;;;;;4804692;29;20058;-82
2022/10/30 07:21:01;;;;;;;5.53;2.03;;;11.60;96.30;;;;;;4802280;29;20058;-84
2022/10/30 07:23:30;;;;;;;5.45;2.40;;;11.70;96.30;;;;;;4805527;29;20054;-84
2022/10/30 07:26:08;;;;;;;5.50;2.08;;;11.70;96.30;;;;;;4793109;29;20055;-85
2022/10/30 07:28:37;;;;;;;5.50;1.95;;;11.70;96.30;;;;;;4780926;29;20069;-83
2022/10/30 07:31:24;;;;;;;5.63;2.72;;;11.80;96.30;;;;;;4792583;29;20092;-83
2022/10/30 07:34:26;;;;;;;6.18;2.40;;;11.80;96.30;;;;;;4806278;29;20186;-84
2022/10/30 07:37:19;;;;;;;6.25;2.40;;;11.80;96.30;;;;;;4796512;29;20129;-83
2022/10/30 07:40:07;;;;;;;5.28;2.13;;;11.80;96.30;;;;;;4816280;29;20055;-84
2022/10/30 07:42:58;;;;;;;6.03;2.55;;;11.90;96.30;;;;;;4779083;29;20118;-84
2022/10/30 07:45:40;;;;;;;;;;;11.90;96.20;;;;;;4771693;29;20378;-83
2022/10/30 07:48:26;;;;;;;5.18;1.52;;;11.90;96.20;;;;;;4809136;29;19932;-85
2022/10/30 07:50:59;;;;;;;4.50;2.00;;;12.00;96.20;;;;;;4790431;29;20054;-84
2022/10/30 07:53:30;;;;;;;4.30;2.30;;;12.00;96.10;;;;;;4790383;29;20116;-83
2022/10/30 07:55:58;;;;;;;6.07;2.88;;;12.10;96.10;;;;;;4775755;29;20055;-83
2022/10/30 07:58:48;;;;;;;4.80;2.22;;;12.10;96.10;;;;;;4776643;29;20465;-83
2022/10/30 08:01:33;;;;;;;4.85;2.63;;;12.20;96.10;;;;;;4778052;29;20081;-83
2022/10/30 08:04:17;;;;;;;6.05;3.15;;;12.20;96.20;;;;;;4792209;29;20123;-83
2022/10/30 08:06:44;;;;;;;7.20;2.80;;;12.20;96.10;;;;;;4775364;29;20531;-83
2022/10/30 08:09:12;;;;;;;4.10;2.95;;;12.30;96.10;;;;;;4790307;29;20046;-83
2022/10/30 08:11:39;;;;;;;5.88;2.90;;;12.40;96.00;;;;;;4804835;29;20047;-83
2022/10/30 08:14:06;;;;;;;6.60;2.80;;;12.40;96.00;;;;;;4789292;29;20062;-84
2022/10/30 08:16:33;;;;;;;6.85;3.63;;;12.40;96.00;;;;;;4789755;29;20055;-84
2022/10/30 08:19:02;;;;;;;8.02;3.30;;;12.50;96.00;;;;;;4805141;29;20130;-87
2022/10/30 08:21:29;;;;;;;6.30;3.30;;;12.50;96.00;;;;;;4805345;29;20492;-83
2022/10/30 08:23:58;;;;;;;5.97;3.22;;;12.60;96.00;;;;;;4790280;29;20142;-84
2022/10/30 08:26:28;;;;;;;5.65;3.60;;;12.60;95.90;;;;;;4790081;29;20043;-84
2022/10/30 08:28:56;;;;;;;5.50;3.13;;;12.70;96.00;;;;;;4790083;29;20092;-88
2022/10/30 08:31:24;;;;;;;7.05;3.22;;;12.80;95.90;;;;;;4776040;29;20051;-84
2022/10/30 08:34:00;;;;;;;5.85;3.17;;;12.80;95.90;;;;;;4782001;29;20082;-84
2022/10/30 08:36:53;;;;;;;7.15;3.38;;;12.90;95.80;;;;;;4799579;29;20585;-84
2022/10/30 08:39:20;;;;;;;5.93;3.28;;;13.00;95.80;;;;;;4804648;29;20416;-84
2022/10/30 08:41:58;;;;;;;7.97;3.83;;;13.00;95.80;;;;;;4790511;29;20069;-84
2022/10/30 08:44:34;;;;;;;8.35;4.22;;;13.10;95.80;;;;;;4804789;29;20397;-83
2022/10/30 08:47:33;;;;;;;6.60;3.42;;;13.20;95.70;;;;;;4785037;29;20099;-88
2022/10/30 08:50:00;;;;;;;8.10;3.83;;;13.20;95.70;;;;;;4791397;29;20054;-83
2022/10/30 08:52:30;;;;;;;7.53;4.05;;;13.30;95.70;;;;;;4761182;29;20397;-83
2022/10/30 08:54:57;;;;;;;7.00;4.07;;;13.40;95.60;;;;;;4795871;29;20054;-88
2022/10/30 08:57:26;;;;;;;6.20;3.55;;;13.50;95.60;;;;;;4788234;29;20047;-87
2022/10/30 08:59:55;;;;;;;8.65;4.40;;;13.50;95.60;;;;;;4789682;29;20479;-83
2022/10/30 09:02:55;;;;;;;8.07;4.03;;;13.50;95.50;;;;;;4782972;29;20088;-83
2022/10/30 09:05:36;;;;;;;10.23;4.68;;;13.60;95.50;;;;;;4804990;29;20050;-86
2022/10/30 09:08:32;;;;;;;7.68;4.30;;;13.70;95.50;;;;;;4792468;29;20069;-87
2022/10/30 09:11:31;;;;;;;8.82;4.63;;;13.70;95.50;;;;;;4781978;29;20404;-87
2022/10/30 09:13:58;;;;;;;10.45;4.95;;;13.70;95.40;;;;;;4804588;29;20063;-87
2022/10/30 09:16:26;;;;;;;10.75;4.90;;;13.80;95.40;;;;;;4790230;29;20484;-87
2022/10/30 09:18:55;;;;;;;8.27;4.93;;;13.80;95.50;;;;;;4775040;29;20043;-86
2022/10/30 09:21:23;;;;;;;10.65;5.03;;;13.80;95.40;;;;;;4789783;29;20051;-86
2022/10/30 09:23:52;;;;;;;11.15;5.40;;;13.90;95.50;;;;;;4784276;29;20043;-83
2022/10/30 09:26:34;;;;;;;7.95;4.70;;;13.90;95.40;;;;;;4793532;29;20065;-83
2022/10/30 09:29:12;;;;;;;10.68;5.43;;;14.00;95.40;;;;;;4809244;29;20063;-83
2022/10/30 09:31:59;;;;;;;10.18;4.88;;;14.00;95.40;;;;;;4809298;29;20083;-83
2022/10/30 09:34:29;;;;;;;8.98;4.90;;;14.10;95.40;;;;;;4807888;29;20055;-83
2022/10/30 09:37:07;;;;;;;10.10;4.90;;;14.20;95.40;;;;;;4779206;29;20579;-86
2022/10/30 09:39:36;;;;;;;10.65;6.50;;;14.20;95.30;;;;;;4792778;29;20153;-86
2022/10/30 09:42:24;;;;;;;7.72;4.55;;;14.30;95.30;;;;;;4783966;29;20046;-86
2022/10/30 09:45:20;;;;;;;8.95;5.13;;;14.40;95.20;;;;;;4803028;29;20111;-86
2022/10/30 09:48:03;;;;;;;10.38;5.13;;;14.40;95.20;;;;;;4776148;29;20103;-83
2022/10/30 09:50:54;;;;;;;9.02;5.45;;;14.50;95.20;;;;;;4807851;29;20055;-86
2022/10/30 09:53:33;;;;;;;10.90;5.78;;;14.60;95.10;;;;;;4802050;29;20055;-87
2022/10/30 09:56:22;;;;;;;10.65;5.82;;;14.70;95.10;;;;;;4807742;29;20062;-85
2022/10/30 09:59:31;;;;;;;9.98;5.55;;;14.70;95.10;;;;;;4807476;29;20512;-87
2022/10/30 10:02:09;;;;;;;9.68;5.25;;;14.80;95.00;;;;;;4775265;29;20047;-92
2022/10/30 10:04:48;;;;;;;10.10;5.32;;;14.90;95.00;;;;;;4809038;29;20055;-85
2022/10/30 10:07:41;;;;;;;10.25;5.07;;;14.90;94.90;;;;;;4819681;29;20051;-86
2022/10/30 10:10:48;;;;;;;7.68;4.93;;;15.00;94.90;;;;;;4802832;29;20049;-85
2022/10/30 10:13:29;;;;;;;11.35;5.53;;;15.10;94.90;;;;;;4792756;29;20508;-87
2022/10/30 10:16:03;;;;;;;9.18;5.45;;;15.20;94.80;;;;;;4803381;29;20142;-87
2022/10/30 10:19:25;;;;;;;8.40;4.88;;;15.20;94.80;;;;;;4822707;29;20099;-86
2022/10/30 10:22:01;;;;;;;9.98;5.38;;;15.40;94.70;;;;;;4792848;29;20046;-86
2022/10/30 10:24:32;;;;;;;8.85;4.95;;;15.50;94.70;;;;;;4811466;29;20175;-86
2022/10/30 10:27:02;;;;;;;9.98;6.32;;;15.50;94.70;;;;;;4819910;29;20053;-85
2022/10/30 10:29:58;;;;;;;11.45;5.80;;;15.60;94.60;;;;;;4822159;29;20111;-86
2022/10/30 10:32:50;;;;;;;11.90;6.50;;;15.80;94.50;;;;;;4806638;29;20050;-85
2022/10/30 10:35:23;;;;;;;11.43;6.45;;;15.90;94.40;;;;;;4806671;29;20054;-85
2022/10/30 10:38:15;;;;;;;11.57;6.78;;;16.00;94.30;;;;;;4805416;29;20143;-87
2022/10/30 10:41:10;;;;;;;10.90;5.78;;;16.20;94.20;;;;;;4791096;29;20111;-86
2022/10/30 10:43:59;;;;;;;11.55;5.38;;;16.20;94.10;;;;;;4784436;29;20454;-85
2022/10/30 10:46:54;;;;;;;8.27;5.15;;;16.30;94.10;;;;;;4806411;29;20059;-84
2022/10/30 10:49:30;;;;;;;8.18;5.30;;;16.30;94.20;;;;;;4783088;29;20146;-84
2022/10/30 10:52:08;;;;;;;9.25;4.90;;;16.30;94.20;;;;;;4820886;29;20050;-84
2022/10/30 10:54:42;;;;;;;8.27;4.40;;;16.30;94.30;;;;;;4806397;29;20061;-86
2022/10/30 10:57:18;;;;;;;9.30;5.03;;;16.30;94.30;;;;;;4792038;29;20062;-87
2022/10/30 10:59:52;;;;;;;9.32;4.55;;;16.30;94.30;;;;;;4821687;29;20131;-86
2022/10/30 11:02:50;;;;;;;9.00;4.78;;;16.30;94.30;;;;;;4786823;29;20051;-86
2022/10/30 11:05:26;;;;;;;11.13;5.28;;;16.30;94.60;;;;;;4791289;29;20050;-84
2022/10/30 11:08:04;;;;;;;8.45;5.15;;;16.30;94.40;;;;;;4805913;29;20047;-84
2022/10/30 11:10:33;;;;;;;8.43;4.60;;;16.30;94.40;;;;;;4806667;29;20059;-84
2022/10/30 11:13:00;;;;;;;8.63;4.57;;;16.30;94.40;;;;;;4762704;29;20083;-85
2022/10/30 11:16:05;;;;;;;8.85;4.68;;;16.40;94.30;;;;;;4791272;29;20063;-85
2022/10/30 11:18:33;;;;;;;7.45;4.32;;;16.50;94.20;;;;;;4786812;29;20581;-86
2022/10/30 11:21:10;;;;;;;8.00;4.95;;;16.60;94.30;;;;;;4776866;29;20464;-85
2022/10/30 11:23:41;;;;;;;11.75;5.15;;;16.60;94.20;;;;;;4805800;29;20496;-85
2022/10/30 11:26:18;;;;;;;8.73;4.53;;;16.70;94.10;;;;;;4806022;29;20081;-85
2022/10/30 11:28:51;;;;;;;10.05;4.78;;;16.80;94.00;;;;;;4796542;29;20163;-87
2022/10/30 11:31:37;;;;;;;8.23;4.38;;;16.80;94.00;;;;;;4780324;29;20057;-87
2022/10/30 11:34:33;;;;;;;9.73;4.75;;;16.90;94.00;;;;;;4781845;29;20082;-87
2022/10/30 11:37:01;;;;;;;9.93;4.22;;;17.00;94.00;;;;;;4797626;29;20578;-87
2022/10/30 11:39:33;;;;;;;7.60;4.78;;;17.00;93.90;;;;;;4823638;29;20059;-89
2022/10/30 11:42:09;;;;;;;9.85;4.72;;;17.00;93.80;;;;;;4811501;29;20061;-87
2022/10/30 11:44:50;;;;;;;7.38;4.38;;;17.10;93.80;;;;;;4794785;29;20071;-88
2022/10/30 11:47:31;;;;;;;9.10;4.75;;;17.10;93.80;;;;;;4801989;29;20067;-88
2022/10/30 11:50:05;;;;;;;9.75;4.90;;;17.20;93.70;;;;;;4814314;29;20055;-89
2022/10/30 11:52:39;;;;;;;6.55;4.25;;;17.30;93.70;;;;;;4808224;29;20062;-88
2022/10/30 11:55:24;;;;;;;7.68;4.70;;;17.40;93.70;;;;;;4795454;29;20051;-87
2022/10/30 11:57:55;;;;;;;9.73;4.70;;;17.50;93.60;;;;;;4803390;29;20058;-84
2022/10/30 12:00:26;;;;;;;9.82;5.20;;;17.40;93.60;;;;;;4800483;29;20047;-83
2022/10/30 12:02:56;;;;;;;8.02;3.97;;;17.50;93.60;;;;;;4820238;29;20126;-84
2022/10/30 12:05:24;;;;;;;6.97;4.20;;;17.50;93.60;;;;;;4791273;29;20074;-86
2022/10/30 12:07:52;;;;;;;8.52;4.35;;;17.50;93.60;;;;;;4785907;29;20527;-86
2022/10/30 12:10:29;;;;;;;6.13;4.00;;;17.60;93.60;;;;;;5099091;27;20138;-85
2022/10/30 12:13:04;;;;;;;7.40;4.38;;;17.60;93.50;;;;;;5065005;28;20132;-85
2022/10/30 12:15:37;;;;;;;8.35;3.90;;;17.60;93.50;;;;;;5060487;28;20390;-84
2022/10/30 12:18:20;;;;;;;7.90;4.40;;;17.70;93.50;;;;;;5065426;28;20080;-85
2022/10/30 12:20:53;;;;;;;7.28;4.50;;;17.80;93.40;;;;;;5052703;28;20049;-86
2022/10/30 12:23:24;;;;;;;10.70;5.25;;;17.80;93.40;;;;;;5034851;28;20378;-85
2022/10/30 12:26:08;;;;;;;9.50;5.73;;;17.90;93.30;;;;;;5035551;28;20408;-84
2022/10/30 12:28:37;;;;;;;8.13;4.85;;;18.00;93.20;;;;;;5039358;28;20106;-85
2022/10/30 12:31:10;;;;;;;9.35;4.90;;;18.10;93.20;;;;;;5035857;28;20037;-88
2022/10/30 12:33:49;;;;;;;10.98;4.38;;;18.20;93.10;;;;;;5033503;28;20052;-82
2022/10/30 12:36:23;;;;;;;8.18;4.53;;;18.30;93.00;;;;;;5036231;28;20102;-83
2022/10/30 12:39:09;;;;;;;8.40;4.47;;;18.30;93.00;;;;;;5051707;28;20068;-83
2022/10/30 12:41:53;;;;;;;6.00;2.83;;;18.30;93.00;;;;;;5066089;28;20074;-88
2022/10/30 12:44:33;;;;;;;8.65;3.60;;;18.40;93.00;;;;;;5061767;28;20045;-89
2022/10/30 12:47:16;;;;;;;6.70;3.17;;;18.40;92.90;;;;;;5034656;28;20045;-89
2022/10/30 12:49:52;;;;;;;6.47;3.03;;;18.50;93.00;;;;;;5042438;28;20090;-89
2022/10/30 12:52:34;;;;;;;9.82;3.47;;;18.50;93.00;;;;;;5033909;28;20060;-89
2022/10/30 12:55:20;;;;;;;8.02;3.67;;;18.50;92.90;;;;;;5032608;28;20049;-89
2022/10/30 12:57:57;;;;;;;7.25;3.33;;;18.50;93.00;;;;;;5047334;28;20045;-89
2022/10/30 13:00:39;;;;;;;5.70;3.45;;;18.50;92.90;;;;;;5046574;28;20048;-92
2022/10/30 13:03:30;;;;;;;7.15;3.50;;;18.50;92.90;;;;;;5055743;28;20048;-86
2022/10/30 13:06:20;;;;;;;4.45;2.40;;;18.50;92.80;;;;;;5037974;28;20044;-85
2022/10/30 13:09:20;;;;;;;6.40;3.13;;;18.60;92.80;;;;;;5033084;28;20512;-83
2022/10/30 13:12:00;;;;;;;5.72;2.40;;;18.60;92.70;;;;;;5026843;28;20137;-86
2022/10/30 13:14:39;;;;;;;6.53;3.00;;;18.60;92.70;;;;;;5029747;28;20041;-89
2022/10/30 13:17:13;;;;;;;6.53;3.00;;;18.60;92.70;;;;;;5030357;28;20117;-87
2022/10/30 13:19:43;;;;;;;4.25;2.40;;;18.60;92.70;;;;;;5052470;28;20476;-89
2022/10/30 13:22:39;;;;;;;;;;;;;;;;;;;;;
2022/10/30 13:25:16;;;;;;;4.20;2.53;;;18.60;92.70;;;;;;5044216;28;20128;-89
2022/10/30 13:27:52;;;;;;;7.18;2.28;;;18.60;92.70;;;;;;5022253;28;20079;-90
2022/10/30 13:30:26;;;;;;;5.97;2.88;;;18.60;92.70;;;;;;5026915;28;20136;-90
2022/10/30 13:33:05;;;;;;;5.13;2.65;;;18.60;92.70;;;;;;5027189;28;20044;-89